sensor_id;sensor_type;location;lat;lon;timestamp;P1;durP1;ratioP1;P2;durP2;ratioP2
70420;SDS011;57848;51.938;15.520;2023-04-01T00:01:57;6.13;;;2.00;;
70420;SDS011;57848;51.938;15.520;2023-04-01T00:04:22;6.23;;;2.00;;
70420;SDS011;57848;51.938;15.520;2023-04-01T00:06:48;6.90;;;1.80;;
70420;SDS011;57848;51.938;15.520;2023-04-01T00:09:13;7.87;;;2.30;;
70420;SDS011;57848;51.938;15.520;2023-04-01T00:11:39;11.33;;;2.40;;
70420;SDS011;57848;51.938;15.520;2023-04-01T00:14:05;5.88;;;1.70;;
70420;SDS011;57848;51.938;15.520;2023-04-01T00:16:31;7.38;;;2.28;;
70420;SDS011;57848;51.938;15.520;2023-04-01T00:18:57;5.63;;;1.93;;
70420;SDS011;57848;51.938;15.520;2023-04-01T00:21:22;6.03;;;1.98;;
70420;SDS011;57848;51.938;15.520;2023-04-01T00:23:48;7.20;;;1.90;;
70420;SDS011;57848;51.938;15.520;2023-04-01T00:26:15;7.13;;;2.10;;
70420;SDS011;57848;51.938;15.520;2023-04-01T00:28:44;5.73;;;1.93;;
70420;SDS011;57848;51.938;15.520;2023-04-01T00:31:10;7.28;;;2.20;;
70420;SDS011;57848;51.938;15.520;2023-04-01T00:33:36;8.80;;;2.47;;
70420;SDS011;57848;51.938;15.520;2023-04-01T00:36:06;5.55;;;2.20;;
70420;SDS011;57848;51.938;15.520;2023-04-01T00:38:33;8.07;;;2.17;;
70420;SDS011;57848;51.938;15.520;2023-04-01T00:40:59;7.20;;;1.90;;
70420;SDS011;57848;51.938;15.520;2023-04-01T00:43:25;8.45;;;2.55;;
70420;SDS011;57848;51.938;15.520;2023-04-01T00:45:51;8.32;;;2.42;;
70420;SDS011;57848;51.938;15.520;2023-04-01T00:48:17;7.90;;;2.07;;
70420;SDS011;57848;51.938;15.520;2023-04-01T00:50:56;9.85;;;2.42;;
70420;SDS011;57848;51.938;15.520;2023-04-01T00:53:26;7.17;;;2.37;;
70420;SDS011;57848;51.938;15.520;2023-04-01T00:56:27;7.47;;;2.42;;
70420;SDS011;57848;51.938;15.520;2023-04-01T00:58:54;8.75;;;2.70;;
70420;SDS011;57848;51.938;15.520;2023-04-01T01:01:26;6.65;;;2.75;;
70420;SDS011;57848;51.938;15.520;2023-04-01T01:03:54;8.55;;;2.65;;
70420;SDS011;57848;51.938;15.520;2023-04-01T01:11:54;9.10;;;2.97;;
70420;SDS011;57848;51.938;15.520;2023-04-01T01:20:57;8.32;;;3.00;;
70420;SDS011;57848;51.938;15.520;2023-04-01T01:37:29;7.78;;;3.58;;
70420;SDS011;57848;51.938;15.520;2023-04-01T01:39:58;8.77;;;3.40;;
70420;SDS011;57848;51.938;15.520;2023-04-01T01:42:30;8.60;;;3.28;;
70420;SDS011;57848;51.938;15.520;2023-04-01T01:44:58;8.17;;;3.47;;
70420;SDS011;57848;51.938;15.520;2023-04-01T01:47:25;9.88;;;3.75;;
70420;SDS011;57848;51.938;15.520;2023-04-01T01:49:52;10.52;;;3.50;;
70420;SDS011;57848;51.938;15.520;2023-04-01T01:52:21;8.85;;;3.03;;
70420;SDS011;57848;51.938;15.520;2023-04-01T01:54:51;9.85;;;3.13;;
70420;SDS011;57848;51.938;15.520;2023-04-01T01:57:20;10.30;;;3.83;;
70420;SDS011;57848;51.938;15.520;2023-04-01T01:59:52;9.05;;;3.03;;
70420;SDS011;57848;51.938;15.520;2023-04-01T02:02:25;7.93;;;3.45;;
70420;SDS011;57848;51.938;15.520;2023-04-01T02:04:52;8.38;;;3.42;;
70420;SDS011;57848;51.938;15.520;2023-04-01T02:07:26;8.40;;;3.40;;
70420;SDS011;57848;51.938;15.520;2023-04-01T02:09:55;8.52;;;3.53;;
70420;SDS011;57848;51.938;15.520;2023-04-01T02:12:21;9.45;;;3.63;;
70420;SDS011;57848;51.938;15.520;2023-04-01T02:14:59;9.33;;;3.70;;
70420;SDS011;57848;51.938;15.520;2023-04-01T02:17:30;9.93;;;3.88;;
70420;SDS011;57848;51.938;15.520;2023-04-01T02:20:01;10.45;;;4.20;;
70420;SDS011;57848;51.938;15.520;2023-04-01T02:22:31;10.25;;;3.80;;
70420;SDS011;57848;51.938;15.520;2023-04-01T02:25:01;8.55;;;3.65;;
70420;SDS011;57848;51.938;15.520;2023-04-01T02:27:31;8.13;;;3.70;;
70420;SDS011;57848;51.938;15.520;2023-04-01T02:29:57;9.90;;;3.92;;
70420;SDS011;57848;51.938;15.520;2023-04-01T02:32:23;8.60;;;3.60;;
70420;SDS011;57848;51.938;15.520;2023-04-01T02:34:50;9.82;;;3.50;;
70420;SDS011;57848;51.938;15.520;2023-04-01T02:37:16;9.95;;;4.18;;
70420;SDS011;57848;51.938;15.520;2023-04-01T02:39:42;8.10;;;3.50;;
70420;SDS011;57848;51.938;15.520;2023-04-01T02:42:08;10.10;;;3.60;;
70420;SDS011;57848;51.938;15.520;2023-04-01T02:44:33;9.87;;;3.70;;
70420;SDS011;57848;51.938;15.520;2023-04-01T02:46:59;8.77;;;3.90;;
70420;SDS011;57848;51.938;15.520;2023-04-01T02:49:24;8.03;;;3.97;;
70420;SDS011;57848;51.938;15.520;2023-04-01T02:51:49;8.13;;;3.53;;
70420;SDS011;57848;51.938;15.520;2023-04-01T02:54:16;8.57;;;3.85;;
70420;SDS011;57848;51.938;15.520;2023-04-01T02:56:42;9.37;;;4.13;;
70420;SDS011;57848;51.938;15.520;2023-04-01T02:59:08;7.50;;;3.45;;
70420;SDS011;57848;51.938;15.520;2023-04-01T03:01:33;9.07;;;4.30;;
70420;SDS011;57848;51.938;15.520;2023-04-01T03:03:58;7.27;;;3.47;;
70420;SDS011;57848;51.938;15.520;2023-04-01T03:06:24;9.80;;;4.50;;
70420;SDS011;57848;51.938;15.520;2023-04-01T03:08:50;9.18;;;3.85;;
70420;SDS011;57848;51.938;15.520;2023-04-01T03:11:15;6.90;;;3.40;;
70420;SDS011;57848;51.938;15.520;2023-04-01T03:13:40;8.40;;;4.33;;
70420;SDS011;57848;51.938;15.520;2023-04-01T03:16:06;8.13;;;3.40;;
70420;SDS011;57848;51.938;15.520;2023-04-01T03:18:32;8.38;;;4.03;;
70420;SDS011;57848;51.938;15.520;2023-04-01T03:21:11;7.73;;;3.83;;
70420;SDS011;57848;51.938;15.520;2023-04-01T03:23:37;9.20;;;3.97;;
70420;SDS011;57848;51.938;15.520;2023-04-01T03:26:03;7.60;;;3.57;;
70420;SDS011;57848;51.938;15.520;2023-04-01T03:28:28;10.48;;;4.20;;
70420;SDS011;57848;51.938;15.520;2023-04-01T03:30:53;9.13;;;4.30;;
70420;SDS011;57848;51.938;15.520;2023-04-01T03:33:19;9.37;;;4.13;;
70420;SDS011;57848;51.938;15.520;2023-04-01T03:35:44;8.33;;;3.87;;
70420;SDS011;57848;51.938;15.520;2023-04-01T03:38:10;9.90;;;4.38;;
70420;SDS011;57848;51.938;15.520;2023-04-01T03:40:35;7.93;;;3.50;;
70420;SDS011;57848;51.938;15.520;2023-04-01T03:43:03;7.38;;;3.72;;
70420;SDS011;57848;51.938;15.520;2023-04-01T03:45:31;8.73;;;3.90;;
70420;SDS011;57848;51.938;15.520;2023-04-01T03:47:57;8.68;;;4.10;;
70420;SDS011;57848;51.938;15.520;2023-04-01T03:50:22;7.93;;;3.67;;
70420;SDS011;57848;51.938;15.520;2023-04-01T03:52:48;8.33;;;3.57;;
70420;SDS011;57848;51.938;15.520;2023-04-01T03:55:13;8.00;;;3.40;;
70420;SDS011;57848;51.938;15.520;2023-04-01T03:57:39;8.40;;;3.90;;
70420;SDS011;57848;51.938;15.520;2023-04-01T04:00:14;7.78;;;3.58;;
70420;SDS011;57848;51.938;15.520;2023-04-01T04:02:41;9.10;;;3.80;;
70420;SDS011;57848;51.938;15.520;2023-04-01T04:05:08;9.20;;;3.90;;
70420;SDS011;57848;51.938;15.520;2023-04-01T04:07:34;8.80;;;3.93;;
70420;SDS011;57848;51.938;15.520;2023-04-01T04:10:04;7.20;;;3.70;;
70420;SDS011;57848;51.938;15.520;2023-04-01T04:12:30;7.60;;;3.17;;
70420;SDS011;57848;51.938;15.520;2023-04-01T04:14:56;9.13;;;3.43;;
70420;SDS011;57848;51.938;15.520;2023-04-01T04:17:21;10.52;;;3.45;;
70420;SDS011;57848;51.938;15.520;2023-04-01T04:19:46;10.40;;;3.80;;
70420;SDS011;57848;51.938;15.520;2023-04-01T04:22:12;7.63;;;3.87;;
70420;SDS011;57848;51.938;15.520;2023-04-01T04:24:37;7.30;;;3.77;;
70420;SDS011;57848;51.938;15.520;2023-04-01T04:27:07;10.05;;;3.85;;
70420;SDS011;57848;51.938;15.520;2023-04-01T04:29:40;9.23;;;4.03;;
70420;SDS011;57848;51.938;15.520;2023-04-01T04:32:05;8.17;;;3.97;;
70420;SDS011;57848;51.938;15.520;2023-04-01T04:34:31;8.52;;;4.70;;
70420;SDS011;57848;51.938;15.520;2023-04-01T04:36:56;11.43;;;4.70;;
70420;SDS011;57848;51.938;15.520;2023-04-01T04:39:27;9.02;;;4.40;;
70420;SDS011;57848;51.938;15.520;2023-04-01T04:41:52;9.33;;;4.10;;
70420;SDS011;57848;51.938;15.520;2023-04-01T04:44:18;8.40;;;4.20;;
70420;SDS011;57848;51.938;15.520;2023-04-01T04:46:43;12.20;;;4.70;;
70420;SDS011;57848;51.938;15.520;2023-04-01T04:49:13;8.70;;;4.80;;
70420;SDS011;57848;51.938;15.520;2023-04-01T04:51:39;9.23;;;4.30;;
70420;SDS011;57848;51.938;15.520;2023-04-01T04:54:05;8.88;;;4.47;;
70420;SDS011;57848;51.938;15.520;2023-04-01T04:57:03;9.20;;;4.17;;
70420;SDS011;57848;51.938;15.520;2023-04-01T04:59:33;8.68;;;4.70;;
70420;SDS011;57848;51.938;15.520;2023-04-01T05:02:06;12.25;;;5.32;;
70420;SDS011;57848;51.938;15.520;2023-04-01T05:04:35;10.17;;;5.53;;
70420;SDS011;57848;51.938;15.520;2023-04-01T05:07:02;9.77;;;5.25;;
70420;SDS011;57848;51.938;15.520;2023-04-01T05:09:28;9.25;;;5.03;;
70420;SDS011;57848;51.938;15.520;2023-04-01T05:11:53;9.23;;;4.90;;
70420;SDS011;57848;51.938;15.520;2023-04-01T05:14:20;9.40;;;4.70;;
70420;SDS011;57848;51.938;15.520;2023-04-01T05:16:56;9.63;;;4.88;;
70420;SDS011;57848;51.938;15.520;2023-04-01T05:19:22;10.23;;;5.20;;
70420;SDS011;57848;51.938;15.520;2023-04-01T05:21:47;9.87;;;4.90;;
70420;SDS011;57848;51.938;15.520;2023-04-01T05:24:12;11.63;;;5.90;;
70420;SDS011;57848;51.938;15.520;2023-04-01T05:26:38;9.82;;;4.93;;
70420;SDS011;57848;51.938;15.520;2023-04-01T05:29:04;10.70;;;5.63;;
70420;SDS011;57848;51.938;15.520;2023-04-01T05:31:30;10.65;;;6.00;;
70420;SDS011;57848;51.938;15.520;2023-04-01T05:33:57;11.13;;;6.07;;
70420;SDS011;57848;51.938;15.520;2023-04-01T05:36:22;12.82;;;5.88;;
70420;SDS011;57848;51.938;15.520;2023-04-01T05:38:48;11.20;;;5.50;;
70420;SDS011;57848;51.938;15.520;2023-04-01T05:41:16;13.73;;;5.72;;
70420;SDS011;57848;51.938;15.520;2023-04-01T05:43:44;14.23;;;6.85;;
70420;SDS011;57848;51.938;15.520;2023-04-01T05:46:29;10.55;;;5.72;;
70420;SDS011;57848;51.938;15.520;2023-04-01T05:49:02;14.52;;;8.18;;
70420;SDS011;57848;51.938;15.520;2023-04-01T05:51:29;15.53;;;10.80;;
70420;SDS011;57848;51.938;15.520;2023-04-01T05:53:54;12.65;;;7.25;;
70420;SDS011;57848;51.938;15.520;2023-04-01T05:56:19;12.10;;;7.40;;
70420;SDS011;57848;51.938;15.520;2023-04-01T05:58:50;11.95;;;7.70;;
70420;SDS011;57848;51.938;15.520;2023-04-01T06:01:17;12.53;;;6.57;;
70420;SDS011;57848;51.938;15.520;2023-04-01T06:03:44;11.10;;;5.75;;
70420;SDS011;57848;51.938;15.520;2023-04-01T06:06:13;12.88;;;6.30;;
70420;SDS011;57848;51.938;15.520;2023-04-01T06:08:41;12.57;;;6.88;;
70420;SDS011;57848;51.938;15.520;2023-04-01T06:16:22;10.95;;;6.55;;
70420;SDS011;57848;51.938;15.520;2023-04-01T06:24:24;53.13;;;31.45;;
70420;SDS011;57848;51.938;15.520;2023-04-01T06:32:44;41.67;;;21.83;;
70420;SDS011;57848;51.938;15.520;2023-04-01T06:35:22;21.80;;;13.27;;
70420;SDS011;57848;51.938;15.520;2023-04-01T06:40:41;13.07;;;7.83;;
70420;SDS011;57848;51.938;15.520;2023-04-01T06:43:37;13.15;;;6.82;;
70420;SDS011;57848;51.938;15.520;2023-04-01T06:46:51;16.67;;;10.18;;
70420;SDS011;57848;51.938;15.520;2023-04-01T06:49:49;12.40;;;6.47;;
70420;SDS011;57848;51.938;15.520;2023-04-01T06:55:41;19.10;;;10.60;;
70420;SDS011;57848;51.938;15.520;2023-04-01T06:58:42;42.25;;;20.73;;
70420;SDS011;57848;51.938;15.520;2023-04-01T07:01:14;46.95;;;24.83;;
70420;SDS011;57848;51.938;15.520;2023-04-01T07:06:47;25.27;;;16.00;;
70420;SDS011;57848;51.938;15.520;2023-04-01T07:09:21;17.27;;;11.50;;
70420;SDS011;57848;51.938;15.520;2023-04-01T07:12:15;13.02;;;6.63;;
70420;SDS011;57848;51.938;15.520;2023-04-01T07:15:18;12.35;;;8.15;;
70420;SDS011;57848;51.938;15.520;2023-04-01T07:17:52;12.88;;;7.13;;
70420;SDS011;57848;51.938;15.520;2023-04-01T07:20:32;22.95;;;16.83;;
70420;SDS011;57848;51.938;15.520;2023-04-01T07:23:02;14.70;;;9.70;;
70420;SDS011;57848;51.938;15.520;2023-04-01T07:25:53;13.32;;;7.18;;
70420;SDS011;57848;51.938;15.520;2023-04-01T07:28:41;12.23;;;7.30;;
70420;SDS011;57848;51.938;15.520;2023-04-01T07:37:18;13.63;;;6.27;;
70420;SDS011;57848;51.938;15.520;2023-04-01T07:42:47;11.98;;;7.05;;
70420;SDS011;57848;51.938;15.520;2023-04-01T07:51:11;11.50;;;5.90;;
70420;SDS011;57848;51.938;15.520;2023-04-01T07:54:02;12.05;;;6.15;;
70420;SDS011;57848;51.938;15.520;2023-04-01T07:59:07;12.43;;;6.60;;
70420;SDS011;57848;51.938;15.520;2023-04-01T08:13:51;12.82;;;6.93;;
70420;SDS011;57848;51.938;15.520;2023-04-01T08:22:38;11.27;;;5.38;;
70420;SDS011;57848;51.938;15.520;2023-04-01T08:25:25;11.47;;;5.83;;
70420;SDS011;57848;51.938;15.520;2023-04-01T08:27:55;10.48;;;5.63;;
70420;SDS011;57848;51.938;15.520;2023-04-01T08:30:26;11.27;;;5.45;;
70420;SDS011;57848;51.938;15.520;2023-04-01T08:33:06;13.23;;;5.90;;
70420;SDS011;57848;51.938;15.520;2023-04-01T08:36:24;11.10;;;5.25;;
70420;SDS011;57848;51.938;15.520;2023-04-01T08:38:38;9.93;;;5.53;;
70420;SDS011;57848;51.938;15.520;2023-04-01T08:44:31;13.88;;;6.20;;
70420;SDS011;57848;51.938;15.520;2023-04-01T08:53:08;13.50;;;6.63;;
70420;SDS011;57848;51.938;15.520;2023-04-01T08:56:00;9.38;;;5.07;;
70420;SDS011;57848;51.938;15.520;2023-04-01T08:58:52;10.50;;;5.20;;
70420;SDS011;57848;51.938;15.520;2023-04-01T09:01:51;9.05;;;4.57;;
70420;SDS011;57848;51.938;15.520;2023-04-01T09:05:01;8.93;;;4.43;;
70420;SDS011;57848;51.938;15.520;2023-04-01T09:07:49;10.27;;;4.77;;
70420;SDS011;57848;51.938;15.520;2023-04-01T09:13:29;8.52;;;4.25;;
70420;SDS011;57848;51.938;15.520;2023-04-01T09:19:11;8.20;;;3.90;;
70420;SDS011;57848;51.938;15.520;2023-04-01T09:26:57;9.60;;;4.35;;
70420;SDS011;57848;51.938;15.520;2023-04-01T09:29:42;8.98;;;4.95;;
70420;SDS011;57848;51.938;15.520;2023-04-01T09:40:18;11.25;;;5.30;;
70420;SDS011;57848;51.938;15.520;2023-04-01T09:43:25;10.35;;;4.63;;
70420;SDS011;57848;51.938;15.520;2023-04-01T09:48:34;7.28;;;3.70;;
70420;SDS011;57848;51.938;15.520;2023-04-01T10:05:29;7.63;;;3.47;;
70420;SDS011;57848;51.938;15.520;2023-04-01T10:13:48;8.30;;;4.20;;
70420;SDS011;57848;51.938;15.520;2023-04-01T10:25:05;10.00;;;4.15;;
70420;SDS011;57848;51.938;15.520;2023-04-01T10:28:12;7.40;;;3.63;;
70420;SDS011;57848;51.938;15.520;2023-04-01T10:34:38;8.00;;;3.63;;
70420;SDS011;57848;51.938;15.520;2023-04-01T10:43:46;9.55;;;4.47;;
70420;SDS011;57848;51.938;15.520;2023-04-01T10:46:28;10.05;;;5.28;;
70420;SDS011;57848;51.938;15.520;2023-04-01T10:52:39;7.47;;;3.40;;
70420;SDS011;57848;51.938;15.520;2023-04-01T10:56:11;7.55;;;3.70;;
70420;SDS011;57848;51.938;15.520;2023-04-01T10:59:15;7.53;;;3.35;;
70420;SDS011;57848;51.938;15.520;2023-04-01T11:23:03;7.53;;;3.10;;
70420;SDS011;57848;51.938;15.520;2023-04-01T11:31:54;7.55;;;3.00;;
70420;SDS011;57848;51.938;15.520;2023-04-01T11:49:49;5.53;;;1.77;;
70420;SDS011;57848;51.938;15.520;2023-04-01T11:58:28;6.15;;;2.33;;
70420;SDS011;57848;51.938;15.520;2023-04-01T12:25:43;8.23;;;3.88;;
70420;SDS011;57848;51.938;15.520;2023-04-01T12:42:44;6.55;;;2.75;;
70420;SDS011;57848;51.938;15.520;2023-04-01T12:45:31;6.30;;;2.53;;
70420;SDS011;57848;51.938;15.520;2023-04-01T12:48:17;7.97;;;3.13;;
70420;SDS011;57848;51.938;15.520;2023-04-01T12:53:52;7.63;;;3.42;;
70420;SDS011;57848;51.938;15.520;2023-04-01T12:57:02;8.23;;;3.83;;
70420;SDS011;57848;51.938;15.520;2023-04-01T13:05:37;7.72;;;3.83;;
70420;SDS011;57848;51.938;15.520;2023-04-01T13:13:32;9.27;;;4.93;;
70420;SDS011;57848;51.938;15.520;2023-04-01T13:18:57;15.10;;;7.20;;
70420;SDS011;57848;51.938;15.520;2023-04-01T13:21:43;18.08;;;9.63;;
70420;SDS011;57848;51.938;15.520;2023-04-01T13:24:22;19.48;;;10.18;;
70420;SDS011;57848;51.938;15.520;2023-04-01T13:29:46;16.52;;;9.27;;
70420;SDS011;57848;51.938;15.520;2023-04-01T13:43:16;11.57;;;4.93;;
70420;SDS011;57848;51.938;15.520;2023-04-01T13:48:29;10.87;;;4.83;;
70420;SDS011;57848;51.938;15.520;2023-04-01T13:53:59;11.88;;;5.95;;
70420;SDS011;57848;51.938;15.520;2023-04-01T13:59:18;13.68;;;6.07;;
70420;SDS011;57848;51.938;15.520;2023-04-01T14:02:05;15.20;;;7.30;;
70420;SDS011;57848;51.938;15.520;2023-04-01T14:04:56;17.27;;;8.18;;
70420;SDS011;57848;51.938;15.520;2023-04-01T14:07:56;15.52;;;7.13;;
70420;SDS011;57848;51.938;15.520;2023-04-01T14:10:35;13.52;;;6.97;;
70420;SDS011;57848;51.938;15.520;2023-04-01T14:13:31;15.30;;;7.20;;
70420;SDS011;57848;51.938;15.520;2023-04-01T14:30:21;14.40;;;8.10;;
70420;SDS011;57848;51.938;15.520;2023-04-01T14:33:31;13.10;;;6.45;;
70420;SDS011;57848;51.938;15.520;2023-04-01T14:45:08;11.70;;;5.73;;
70420;SDS011;57848;51.938;15.520;2023-04-01T14:47:47;12.23;;;5.35;;
70420;SDS011;57848;51.938;15.520;2023-04-01T14:50:42;12.20;;;5.90;;
70420;SDS011;57848;51.938;15.520;2023-04-01T14:53:28;14.23;;;7.47;;
70420;SDS011;57848;51.938;15.520;2023-04-01T14:55:58;14.70;;;7.80;;
70420;SDS011;57848;51.938;15.520;2023-04-01T14:58:25;14.50;;;7.67;;
70420;SDS011;57848;51.938;15.520;2023-04-01T15:07:01;16.88;;;8.25;;
70420;SDS011;57848;51.938;15.520;2023-04-01T15:12:29;14.80;;;6.03;;
70420;SDS011;57848;51.938;15.520;2023-04-01T15:15:14;14.77;;;7.15;;
70420;SDS011;57848;51.938;15.520;2023-04-01T15:34:37;14.52;;;6.35;;
70420;SDS011;57848;51.938;15.520;2023-04-01T15:37:19;16.15;;;7.13;;
70420;SDS011;57848;51.938;15.520;2023-04-01T15:45:58;20.42;;;9.38;;
70420;SDS011;57848;51.938;15.520;2023-04-01T15:48:47;18.50;;;8.68;;
70420;SDS011;57848;51.938;15.520;2023-04-01T15:51:19;16.73;;;7.40;;
70420;SDS011;57848;51.938;15.520;2023-04-01T15:53:49;16.43;;;7.00;;
70420;SDS011;57848;51.938;15.520;2023-04-01T16:02:22;16.83;;;8.18;;
70420;SDS011;57848;51.938;15.520;2023-04-01T16:07:55;15.43;;;7.13;;
70420;SDS011;57848;51.938;15.520;2023-04-01T16:10:31;19.02;;;8.88;;
70420;SDS011;57848;51.938;15.520;2023-04-01T16:15:53;15.80;;;7.65;;
70420;SDS011;57848;51.938;15.520;2023-04-01T16:18:48;18.60;;;9.70;;
70420;SDS011;57848;51.938;15.520;2023-04-01T16:21:33;21.57;;;10.07;;
70420;SDS011;57848;51.938;15.520;2023-04-01T16:26:44;25.88;;;13.93;;
70420;SDS011;57848;51.938;15.520;2023-04-01T16:31:45;25.43;;;14.30;;
70420;SDS011;57848;51.938;15.520;2023-04-01T16:34:29;26.98;;;15.68;;
70420;SDS011;57848;51.938;15.520;2023-04-01T16:37:03;27.33;;;14.43;;
70420;SDS011;57848;51.938;15.520;2023-04-01T16:39:54;31.87;;;16.40;;
70420;SDS011;57848;51.938;15.520;2023-04-01T16:42:40;29.15;;;15.05;;
70420;SDS011;57848;51.938;15.520;2023-04-01T16:50:59;20.60;;;11.13;;
70420;SDS011;57848;51.938;15.520;2023-04-01T16:53:35;20.53;;;11.67;;
70420;SDS011;57848;51.938;15.520;2023-04-01T16:56:10;21.73;;;11.25;;
70420;SDS011;57848;51.938;15.520;2023-04-01T16:58:42;18.10;;;9.90;;
70420;SDS011;57848;51.938;15.520;2023-04-01T17:01:20;22.67;;;13.40;;
70420;SDS011;57848;51.938;15.520;2023-04-01T17:04:04;22.60;;;12.85;;
70420;SDS011;57848;51.938;15.520;2023-04-01T17:09:25;20.88;;;12.50;;
70420;SDS011;57848;51.938;15.520;2023-04-01T17:12:19;28.05;;;14.05;;
70420;SDS011;57848;51.938;15.520;2023-04-01T17:15:12;23.92;;;12.52;;
70420;SDS011;57848;51.938;15.520;2023-04-01T17:23:31;19.77;;;11.10;;
70420;SDS011;57848;51.938;15.520;2023-04-01T17:28:44;19.25;;;10.68;;
70420;SDS011;57848;51.938;15.520;2023-04-01T17:31:33;19.20;;;11.90;;
70420;SDS011;57848;51.938;15.520;2023-04-01T17:44:45;21.13;;;12.25;;
70420;SDS011;57848;51.938;15.520;2023-04-01T17:52:47;23.13;;;12.43;;
70420;SDS011;57848;51.938;15.520;2023-04-01T17:58:09;18.08;;;10.73;;
70420;SDS011;57848;51.938;15.520;2023-04-01T18:26:42;19.98;;;12.23;;
70420;SDS011;57848;51.938;15.520;2023-04-01T18:29:27;23.73;;;12.77;;
70420;SDS011;57848;51.938;15.520;2023-04-01T18:32:11;24.27;;;14.73;;
70420;SDS011;57848;51.938;15.520;2023-04-01T18:34:43;20.80;;;12.52;;
70420;SDS011;57848;51.938;15.520;2023-04-01T18:40:02;16.17;;;10.38;;
70420;SDS011;57848;51.938;15.520;2023-04-01T18:42:41;18.47;;;11.57;;
70420;SDS011;57848;51.938;15.520;2023-04-01T18:53:39;14.23;;;9.05;;
70420;SDS011;57848;51.938;15.520;2023-04-01T18:56:30;18.70;;;12.17;;
70420;SDS011;57848;51.938;15.520;2023-04-01T18:59:06;16.08;;;10.40;;
70420;SDS011;57848;51.938;15.520;2023-04-01T19:04:42;16.55;;;9.32;;
70420;SDS011;57848;51.938;15.520;2023-04-01T19:10:16;15.40;;;8.90;;
70420;SDS011;57848;51.938;15.520;2023-04-01T19:13:06;13.05;;;8.35;;
70420;SDS011;57848;51.938;15.520;2023-04-01T19:15:39;15.88;;;9.15;;
70420;SDS011;57848;51.938;15.520;2023-04-01T19:26:34;15.35;;;9.65;;
70420;SDS011;57848;51.938;15.520;2023-04-01T19:32:31;16.67;;;10.48;;
70420;SDS011;57848;51.938;15.520;2023-04-01T19:35:13;17.35;;;11.45;;
70420;SDS011;57848;51.938;15.520;2023-04-01T19:43:17;18.15;;;10.07;;
70420;SDS011;57848;51.938;15.520;2023-04-01T19:46:07;12.48;;;7.70;;
70420;SDS011;57848;51.938;15.520;2023-04-01T19:51:35;13.23;;;7.83;;
70420;SDS011;57848;51.938;15.520;2023-04-01T19:54:28;13.70;;;7.65;;
70420;SDS011;57848;51.938;15.520;2023-04-01T20:02:22;15.70;;;8.73;;
70420;SDS011;57848;51.938;15.520;2023-04-01T20:04:55;14.93;;;8.57;;
70420;SDS011;57848;51.938;15.520;2023-04-01T20:15:37;15.38;;;9.23;;
70420;SDS011;57848;51.938;15.520;2023-04-01T20:18:12;15.50;;;8.77;;
70420;SDS011;57848;51.938;15.520;2023-04-01T20:20:42;15.60;;;9.05;;
70420;SDS011;57848;51.938;15.520;2023-04-01T20:23:45;15.40;;;9.35;;
70420;SDS011;57848;51.938;15.520;2023-04-01T20:26:19;13.52;;;8.10;;
70420;SDS011;57848;51.938;15.520;2023-04-01T20:40:30;20.35;;;10.85;;
70420;SDS011;57848;51.938;15.520;2023-04-01T20:45:59;14.20;;;9.00;;
70420;SDS011;57848;51.938;15.520;2023-04-01T20:51:32;15.98;;;8.13;;
70420;SDS011;57848;51.938;15.520;2023-04-01T20:57:02;11.68;;;6.68;;
70420;SDS011;57848;51.938;15.520;2023-04-01T21:19:01;11.77;;;5.65;;
70420;SDS011;57848;51.938;15.520;2023-04-01T21:30:14;13.50;;;7.43;;
70420;SDS011;57848;51.938;15.520;2023-04-01T21:35:31;13.13;;;7.77;;
70420;SDS011;57848;51.938;15.520;2023-04-01T21:38:22;13.75;;;7.88;;
70420;SDS011;57848;51.938;15.520;2023-04-01T21:41:21;11.68;;;6.22;;
70420;SDS011;57848;51.938;15.520;2023-04-01T22:06:43;12.25;;;5.78;;
70420;SDS011;57848;51.938;15.520;2023-04-01T22:09:28;12.93;;;6.00;;
70420;SDS011;57848;51.938;15.520;2023-04-01T22:12:09;10.05;;;5.90;;
70420;SDS011;57848;51.938;15.520;2023-04-01T22:14:54;13.20;;;6.13;;
70420;SDS011;57848;51.938;15.520;2023-04-01T22:22:56;10.90;;;6.70;;
70420;SDS011;57848;51.938;15.520;2023-04-01T22:25:52;11.48;;;6.07;;
70420;SDS011;57848;51.938;15.520;2023-04-01T22:28:32;10.98;;;6.03;;
70420;SDS011;57848;51.938;15.520;2023-04-01T22:31:05;12.02;;;5.50;;
70420;SDS011;57848;51.938;15.520;2023-04-01T22:33:52;11.10;;;5.82;;
70420;SDS011;57848;51.938;15.520;2023-04-01T22:36:23;11.47;;;5.77;;
70420;SDS011;57848;51.938;15.520;2023-04-01T22:39:08;11.70;;;7.03;;
70420;SDS011;57848;51.938;15.520;2023-04-01T22:41:52;11.05;;;5.40;;
70420;SDS011;57848;51.938;15.520;2023-04-01T22:50:02;9.27;;;4.83;;
70420;SDS011;57848;51.938;15.520;2023-04-01T22:52:43;9.88;;;5.18;;
70420;SDS011;57848;51.938;15.520;2023-04-01T22:57:52;12.43;;;5.78;;
70420;SDS011;57848;51.938;15.520;2023-04-01T23:00:30;11.55;;;5.57;;
70420;SDS011;57848;51.938;15.520;2023-04-01T23:05:32;11.98;;;5.82;;
70420;SDS011;57848;51.938;15.520;2023-04-01T23:10:49;11.32;;;5.70;;
70420;SDS011;57848;51.938;15.520;2023-04-01T23:13:21;11.95;;;6.22;;
70420;SDS011;57848;51.938;15.520;2023-04-01T23:15:52;11.40;;;5.93;;
70420;SDS011;57848;51.938;15.520;2023-04-01T23:18:28;11.52;;;5.97;;
70420;SDS011;57848;51.938;15.520;2023-04-01T23:21:15;10.73;;;5.57;;
70420;SDS011;57848;51.938;15.520;2023-04-01T23:23:54;11.82;;;6.22;;
70420;SDS011;57848;51.938;15.520;2023-04-01T23:26:47;10.88;;;5.90;;
70420;SDS011;57848;51.938;15.520;2023-04-01T23:29:23;10.93;;;5.50;;
70420;SDS011;57848;51.938;15.520;2023-04-01T23:32:00;12.50;;;6.80;;
70420;SDS011;57848;51.938;15.520;2023-04-01T23:34:28;10.10;;;5.72;;
70420;SDS011;57848;51.938;15.520;2023-04-01T23:36:57;13.05;;;5.93;;
70420;SDS011;57848;51.938;15.520;2023-04-01T23:39:41;13.02;;;6.85;;
70420;SDS011;57848;51.938;15.520;2023-04-01T23:42:13;15.40;;;7.33;;
70420;SDS011;57848;51.938;15.520;2023-04-01T23:44:40;13.32;;;7.15;;
70420;SDS011;57848;51.938;15.520;2023-04-01T23:47:09;12.57;;;6.90;;
70420;SDS011;57848;51.938;15.520;2023-04-01T23:49:45;14.82;;;7.07;;
70420;SDS011;57848;51.938;15.520;2023-04-01T23:54:48;12.67;;;6.97;;
70420;SDS011;57848;51.938;15.520;2023-04-01T23:57:18;15.32;;;7.78;;
